Time;durP1;ratioP1;P1;durP2;ratioP2;P2;SDS_P1;SDS_P2;PMS_P1;PMS_P2;Temp;Humidity;BMP_temperature;BMP_pressure;BME280_temperature;BME280_humidity;BME280_pressure;Samples;Min_cycle;Max_cycle;Signal;HPM_P1;HPM_P2
2022/06/22 00:02:02;;;;;;;3.33;2.00;;;;;;;11.80;100.00;101495.75;5023598;28;20041;-32
2022/06/22 00:04:34;;;;;;;3.17;1.90;;;;;;;11.77;100.00;101490.75;5019879;28;20046;-32
2022/06/22 00:07:06;;;;;;;3.60;2.22;;;;;;;11.73;100.00;101485.72;5020758;28;20053;-33
2022/06/22 00:09:36;;;;;;;3.40;2.30;;;;;;;11.71;100.00;101487.13;5023732;28;20061;-31
2022/06/22 00:12:06;;;;;;;2.85;1.88;;;;;;;11.69;100.00;101489.38;5022971;28;20384;-33
2022/06/22 00:14:37;;;;;;;4.05;2.05;;;;;;;11.67;100.00;101484.06;5015235;28;20081;-36
2022/06/22 00:17:06;;;;;;;2.95;2.20;;;;;;;11.65;100.00;101491.06;5019529;28;20089;-31
2022/06/22 00:19:40;;;;;;;2.30;1.70;;;;;;;11.65;100.00;101483.53;5020477;28;20056;-33
2022/06/22 00:22:18;;;;;;;3.25;2.40;;;;;;;11.66;100.00;101481.56;5024363;28;20091;-28
2022/06/22 00:24:46;;;;;;;4.05;2.28;;;;;;;11.64;100.00;101481.03;5022507;28;20402;-28
2022/06/22 00:27:20;;;;;;;2.78;2.00;;;;;;;11.64;100.00;101476.25;5016971;28;20517;-31
2022/06/22 00:30:15;;;;;;;3.78;2.22;;;;;;;11.63;100.00;101460.63;5023239;28;20050;-31
2022/06/22 00:33:00;;;;;;;3.40;2.05;;;;;;;11.62;100.00;101472.09;5018412;28;20041;-30
2022/06/22 00:35:54;;;;;;;2.60;1.85;;;;;;;11.60;100.00;101465.94;5015349;28;20061;-30
2022/06/22 00:38:27;;;;;;;2.85;1.90;;;;;;;11.57;100.00;101472.16;5017408;28;20046;-29
2022/06/22 00:40:58;;;;;;;3.45;2.00;;;;;;;11.57;100.00;101483.31;5024963;28;20053;-30
2022/06/22 00:43:31;;;;;;;2.85;1.77;;;;;;;11.56;100.00;101476.91;5022920;28;20041;-29
2022/06/22 00:45:59;;;;;;;;;;;;;;;11.51;100.00;101473.31;5019744;28;20168;-27
2022/06/22 00:48:31;;;;;;;3.28;1.50;;;;;;;11.48;100.00;101480.31;5019670;28;20393;-31
2022/06/22 00:51:03;;;;;;;2.80;1.63;;;;;;;11.50;100.00;101480.00;5023751;28;20147;-29
2022/06/22 00:53:38;;;;;;;3.50;2.00;;;;;;;11.51;100.00;101476.94;5022416;28;20052;-30
2022/06/22 00:56:13;;;;;;;3.65;1.70;;;;;;;11.49;100.00;101484.75;5020998;28;20054;-31
2022/06/22 00:58:51;;;;;;;3.08;1.83;;;;;;;11.49;100.00;101489.53;5020188;28;20417;-29
2022/06/22 01:01:23;;;;;;;2.40;1.42;;;;;;;11.47;100.00;101491.75;5023435;28;20045;-30
2022/06/22 01:04:00;;;;;;;2.33;1.67;;;;;;;11.45;100.00;101486.47;5022645;28;20042;-33
2022/06/22 01:06:33;;;;;;;2.60;1.75;;;;;;;11.43;100.00;101485.91;5020787;28;20045;-35
2022/06/22 01:09:09;;;;;;;3.35;1.95;;;;;;;11.42;100.00;101484.25;5019454;28;20068;-34
2022/06/22 01:14:31;;;;;;;2.70;1.67;;;;;;;11.39;100.00;101494.03;5024272;28;20515;-29
2022/06/22 01:17:02;;;;;;;2.97;1.73;;;;;;;11.38;100.00;101489.59;5018978;28;20042;-33
2022/06/22 01:19:42;;;;;;;3.88;1.60;;;;;;;11.39;100.00;101496.00;5019937;28;20064;-35
2022/06/22 01:22:29;;;;;;;4.65;1.70;;;;;;;11.39;100.00;101502.41;5024172;28;20050;-34
2022/06/22 01:25:06;;;;;;;3.25;1.77;;;;;;;11.38;100.00;101508.31;5018160;28;20499;-33
2022/06/22 01:27:37;;;;;;;3.00;1.52;;;;;;;11.37;100.00;101504.69;5025983;28;20045;-37
2022/06/22 01:30:20;;;;;;;3.67;1.52;;;;;;;11.39;100.00;101507.19;5021844;28;20064;-30
2022/06/22 01:32:49;;;;;;;2.20;1.52;;;;;;;11.35;100.00;101506.94;5017497;28;20470;-29
2022/06/22 01:35:21;;;;;;;3.63;1.85;;;;;;;11.34;100.00;101496.88;5023355;28;20579;-33
2022/06/22 01:37:49;;;;;;;2.40;1.55;;;;;;;11.31;100.00;101496.63;5028540;28;20046;-34
2022/06/22 01:40:20;;;;;;;3.22;2.05;;;;;;;11.30;100.00;101497.75;5026080;28;20045;-30
2022/06/22 01:42:55;;;;;;;2.90;1.90;;;;;;;11.31;100.00;101488.25;5022644;28;20050;-32
2022/06/22 01:45:30;;;;;;;2.83;1.52;;;;;;;11.29;100.00;101491.31;5023234;28;20052;-33
2022/06/22 01:48:04;;;;;;;3.20;1.58;;;;;;;11.28;100.00;101486.84;5027237;28;20395;-29
2022/06/22 01:50:38;;;;;;;3.50;1.90;;;;;;;11.26;100.00;101491.06;5025410;28;20132;-29
2022/06/22 01:53:15;;;;;;;2.55;1.77;;;;;;;11.24;100.00;101501.69;5023025;28;20041;-28
2022/06/22 01:55:48;;;;;;;4.28;1.92;;;;;;;11.20;100.00;101498.63;5023319;28;20049;-32
2022/06/22 01:58:37;;;;;;;3.53;1.95;;;;;;;11.20;100.00;101504.22;5025780;28;20045;-29
2022/06/22 02:01:15;;;;;;;2.80;1.50;;;;;;;11.17;100.00;101490.84;5025659;28;20045;-30
2022/06/22 02:03:50;;;;;;;3.53;1.65;;;;;;;11.15;100.00;101495.88;5020061;28;20050;-36
2022/06/22 02:09:19;;;;;;;3.60;1.83;;;;;;;11.08;100.00;101495.34;5031602;28;20049;-28
2022/06/22 02:12:18;;;;;;;2.50;1.73;;;;;;;11.07;100.00;101490.06;5024036;28;20049;-33
2022/06/22 02:14:44;;;;;;;3.03;1.63;;;;;;;11.07;100.00;101482.50;5021805;28;20072;-32
2022/06/22 02:17:16;;;;;;;2.10;1.30;;;;;;;11.07;100.00;101484.47;5018768;28;20038;-31
2022/06/22 02:19:45;;;;;;;2.88;1.40;;;;;;;11.05;100.00;101490.34;5031398;28;20045;-29
2022/06/22 02:22:14;;;;;;;2.92;1.55;;;;;;;11.03;100.00;101496.19;5026184;28;20136;-36
2022/06/22 02:24:47;;;;;;;1.77;1.10;;;;;;;11.02;100.00;101490.91;5017407;28;20053;-29
2022/06/22 02:27:19;;;;;;;3.03;1.40;;;;;;;11.00;100.00;101493.16;5022364;28;20038;-34
2022/06/22 02:29:51;;;;;;;2.35;1.80;;;;;;;10.97;100.00;101486.19;5030281;28;20057;-33
2022/06/22 02:32:23;;;;;;;3.53;1.80;;;;;;;10.94;100.00;101485.94;5024769;28;20133;-31
2022/06/22 02:34:54;;;;;;;;;;;;;;;10.87;100.00;101488.19;5019113;28;20058;-34
2022/06/22 02:37:25;;;;;;;2.20;1.58;;;;;;;10.81;100.00;101490.16;5021970;28;19925;-33
2022/06/22 02:39:57;;;;;;;1.90;1.20;;;;;;;10.81;100.00;101492.13;5026906;28;20494;-32
2022/06/22 02:45:14;;;;;;;2.33;1.33;;;;;;;10.77;100.00;101499.41;5017187;28;20309;-33
2022/06/22 02:47:47;;;;;;;2.17;1.45;;;;;;;10.78;100.00;101490.75;5022020;28;20058;-31
2022/06/22 02:50:20;;;;;;;2.33;1.63;;;;;;;10.78;100.00;101495.50;5019979;28;20046;-34
2022/06/22 02:52:51;;;;;;;2.75;1.75;;;;;;;10.78;100.00;101498.28;5021482;28;20120;-33
2022/06/22 02:55:22;;;;;;;2.25;1.58;;;;;;;10.77;100.00;101500.25;5026555;28;20103;-31
2022/06/22 02:57:59;;;;;;;3.05;1.92;;;;;;;10.75;100.00;101493.28;5024804;28;20052;-32
2022/06/22 03:00:33;;;;;;;2.67;1.40;;;;;;;10.73;100.00;101499.16;5019977;28;20107;-30
2022/06/22 03:03:08;;;;;;;2.47;1.80;;;;;;;10.71;100.00;101504.16;5019860;28;20054;-35
2022/06/22 03:05:37;;;;;;;2.78;2.00;;;;;;;10.71;100.00;101504.16;5024168;28;20046;-35
2022/06/22 03:08:08;;;;;;;2.95;1.88;;;;;;;10.69;100.00;101506.41;5021843;28;20585;-29
2022/06/22 03:10:43;;;;;;;3.78;1.75;;;;;;;10.67;100.00;101506.69;5020881;28;20140;-29
2022/06/22 03:13:14;;;;;;;2.30;1.67;;;;;;;10.62;100.00;101509.50;5017480;28;20100;-36
2022/06/22 03:15:44;;;;;;;2.60;2.00;;;;;;;10.61;100.00;101502.22;5025207;28;20053;-29
2022/06/22 03:18:16;;;;;;;3.22;2.75;;;;;;;10.59;100.00;101504.47;5023942;28;20042;-36
2022/06/22 03:20:49;;;;;;;3.15;2.17;;;;;;;10.58;100.00;101502.81;5012635;28;20052;-30
2022/06/22 03:23:24;;;;;;;2.83;1.92;;;;;;;10.59;100.00;101498.88;5024553;28;20068;-31
2022/06/22 03:25:58;;;;;;;2.80;1.92;;;;;;;10.60;100.00;101500.56;5022326;28;20047;-33
2022/06/22 03:28:33;;;;;;;2.55;1.90;;;;;;;10.62;100.00;101497.50;5024247;28;20135;-29
2022/06/22 03:31:08;;;;;;;3.05;2.15;;;;;;;10.60;100.00;101497.78;5010830;28;20060;-33
2022/06/22 03:33:43;;;;;;;2.88;1.83;;;;;;;10.59;100.00;101493.31;5031326;28;20137;-34
2022/06/22 03:36:18;;;;;;;2.78;2.00;;;;;;;10.60;100.00;101482.97;5009995;28;20049;-28
2022/06/22 03:38:51;;;;;;;2.70;1.90;;;;;;;10.58;100.00;101486.09;5024455;28;20045;-29
2022/06/22 03:41:23;;;;;;;2.63;1.75;;;;;;;10.59;100.00;101493.31;5024212;28;20115;-32
2022/06/22 03:43:55;;;;;;;4.65;2.35;;;;;;;10.59;100.00;101487.72;5018497;28;20084;-31
2022/06/22 03:46:30;;;;;;;3.13;2.33;;;;;;;10.62;100.00;101476.00;5021652;28;20071;-33
2022/06/22 03:49:02;;;;;;;3.75;2.40;;;;;;;10.65;100.00;101478.22;5026440;28;20065;-32
2022/06/22 03:51:35;;;;;;;3.70;2.30;;;;;;;10.72;100.00;101471.50;5023745;28;20046;-32
2022/06/22 03:54:10;;;;;;;2.97;2.13;;;;;;;10.77;100.00;101472.34;5017628;28;20046;-33
2022/06/22 03:56:42;;;;;;;3.30;2.08;;;;;;;10.81;100.00;101473.41;5020699;28;20050;-31
2022/06/22 03:59:11;;;;;;;3.35;2.13;;;;;;;10.83;100.00;101471.16;5026134;28;20049;-33
2022/06/22 04:01:41;;;;;;;4.70;2.63;;;;;;;10.87;100.00;101465.84;5023574;28;20045;-35
2022/06/22 04:04:10;;;;;;;3.58;2.60;;;;;;;10.93;100.00;101459.13;5016052;28;20506;-32
2022/06/22 04:06:41;;;;;;;4.22;3.45;;;;;;;10.99;100.00;101447.63;5019079;28;20051;-28
2022/06/22 04:09:14;;;;;;;5.43;3.05;;;;;;;11.07;100.00;101449.00;5029131;28;20051;-27
2022/06/22 04:11:47;;;;;;;3.65;2.88;;;;;;;11.12;100.00;101451.75;5023910;28;20046;-32
2022/06/22 04:14:18;;;;;;;4.75;3.10;;;;;;;11.18;100.00;101449.78;5018735;28;20045;-33
2022/06/22 04:16:53;;;;;;;3.28;2.42;;;;;;;11.25;100.00;101450.28;5018220;28;20046;-33
2022/06/22 04:19:26;;;;;;;2.97;2.20;;;;;;;11.26;100.00;101452.78;5029540;28;20172;-32
2022/06/22 04:22:01;;;;;;;5.50;3.05;;;;;;;11.32;100.00;101467.56;5024326;28;20055;-34
2022/06/22 04:24:32;;;;;;;4.60;3.03;;;;;;;11.34;100.00;101466.16;5012978;28;20064;-33
2022/06/22 04:27:07;;;;;;;4.03;1.85;;;;;;;11.39;100.00;101471.69;5019033;28;20209;-35
2022/06/22 04:29:41;;;;;;;3.40;2.20;;;;;;;11.45;100.00;101471.66;5030274;28;20479;-29
2022/06/22 04:32:19;;;;;;;3.20;2.40;;;;;;;11.52;100.00;101461.00;5021917;28;20077;-35
2022/06/22 04:34:51;;;;;;;4.32;2.40;;;;;;;11.56;100.00;101462.09;5013625;28;20069;-31
2022/06/22 04:37:28;;;;;;;6.30;2.70;;;;;;;11.60;100.00;101454.75;5022452;28;20049;-28
2022/06/22 04:40:12;;;;;;;5.25;3.13;;;;;;;11.69;100.00;101456.66;5011204;28;20057;-34
2022/06/22 04:42:41;;;;;;;3.28;2.20;;;;;;;11.74;100.00;101445.44;5022589;28;20057;-27
2022/06/22 04:45:28;;;;;;;3.15;2.40;;;;;;;11.83;100.00;101451.25;5012416;28;20045;-28
2022/06/22 04:48:08;;;;;;;4.53;2.72;;;;;;;11.90;100.00;101473.28;5022662;28;20050;-34
2022/06/22 04:50:38;;;;;;;6.55;3.03;;;;;;;11.96;100.00;101470.16;5014645;28;20054;-35
2022/06/22 04:53:13;;;;;;;4.22;2.40;;;;;;;12.04;100.00;101472.31;5017224;28;20088;-33
2022/06/22 04:55:41;;;;;;;6.10;3.30;;;;;;;12.10;100.00;101480.66;5027838;28;20055;-33
2022/06/22 04:58:23;;;;;;;5.10;2.90;;;;;;;12.19;100.00;101476.91;5023070;28;20136;-30
2022/06/22 05:00:51;;;;;;;5.80;4.22;;;;;;;12.25;100.00;101486.94;5013989;28;20132;-33
2022/06/22 05:03:20;;;;;;;5.82;3.58;;;;;;;12.35;100.00;101491.63;5021795;28;20426;-26
2022/06/22 05:05:48;;;;;;;4.47;3.40;;;;;;;12.43;100.00;101488.16;5011984;28;20521;-34
2022/06/22 05:08:21;;;;;;;8.35;4.90;;;;;;;12.53;100.00;101492.81;5021396;28;20144;-32
2022/06/22 05:10:54;;;;;;;5.90;4.13;;;;;;;12.61;100.00;101494.94;5015948;28;20050;-31
2022/06/22 05:13:30;;;;;;;6.40;5.20;;;;;;;12.70;100.00;101493.19;5020329;28;20057;-32
2022/06/22 05:16:00;;;;;;;6.65;4.20;;;;;;;12.79;100.00;101485.75;5015396;28;20077;-29
2022/06/22 05:18:32;;;;;;;7.90;5.07;;;;;;;12.90;100.00;101480.88;5021618;28;20470;-32
2022/06/22 05:21:06;;;;;;;5.72;3.67;;;;;;;13.00;100.00;101483.53;4996906;28;20061;-28
2022/06/22 05:23:34;;;;;;;6.47;4.80;;;;;;;13.10;100.00;101486.22;5026875;28;20050;-28
2022/06/22 05:26:07;;;;;;;9.20;5.85;;;;;;;13.21;100.00;101486.94;5016636;28;20046;-30
2022/06/22 05:28:41;;;;;;;5.45;4.28;;;;;;;13.32;100.00;101489.31;5018713;28;20053;-35
2022/06/22 05:31:13;;;;;;;8.80;5.85;;;;;;;13.42;100.00;101486.34;5033380;28;20046;-31
2022/06/22 05:33:46;;;;;;;9.50;6.07;;;;;;;13.53;100.00;101489.84;5024165;28;20042;-29
2022/06/22 05:36:19;;;;;;;7.75;6.53;;;;;;;13.63;100.00;101491.63;5031686;28;20124;-35
2022/06/22 05:38:51;;;;;;;8.70;5.72;;;;;;;13.74;100.00;101487.56;5027034;28;20055;-35
2022/06/22 05:41:26;;;;;;;11.25;6.22;;;;;;;13.84;100.00;101492.97;5018130;28;20132;-36
2022/06/22 05:43:57;;;;;;;9.73;6.10;;;;;;;13.94;100.00;101498.44;5024208;28;20054;-33
2022/06/22 05:46:25;;;;;;;7.57;5.90;;;;;;;14.05;100.00;101499.91;5031178;28;20487;-32
2022/06/22 05:48:56;;;;;;;8.45;6.00;;;;;;;14.13;100.00;101504.84;5025102;28;20506;-34
2022/06/22 05:51:36;;;;;;;9.50;5.55;;;;;;;14.24;100.00;101499.88;5019863;28;20081;-28
2022/06/22 05:54:13;;;;;;;7.80;4.50;;;;;;;14.31;100.00;101505.09;5022803;28;20046;-35
2022/06/22 05:56:44;;;;;;;8.18;6.07;;;;;;;14.41;100.00;101502.94;5029866;28;20392;-34
2022/06/22 05:59:19;;;;;;;9.85;6.53;;;;;;;14.52;100.00;101499.97;5026095;28;20479;-32
2022/06/22 06:01:56;;;;;;;9.05;5.63;;;;;;;14.62;100.00;101508.16;5019595;28;20060;-36
2022/06/22 06:04:32;;;;;;;9.15;5.60;;;;;;;14.70;100.00;101513.91;5021927;28;20091;-31
2022/06/22 06:07:06;;;;;;;7.20;4.75;;;;;;;14.80;100.00;101518.47;5030237;28;20540;-33
2022/06/22 06:09:34;;;;;;;6.00;4.05;;;;;;;14.93;100.00;101514.03;5025817;28;20053;-32
2022/06/22 06:12:06;;;;;;;4.90;3.78;;;;;;;15.06;100.00;101511.19;5019520;28;20141;-35
2022/06/22 06:14:38;;;;;;;6.50;3.40;;;;;;;15.21;100.00;101504.41;5023557;28;20400;-30
2022/06/22 06:17:10;;;;;;;6.70;3.72;;;;;;;15.34;100.00;101509.19;5020339;28;20050;-35
2022/06/22 06:19:43;;;;;;;5.50;3.47;;;;;;;15.47;100.00;101518.75;5022020;28;20396;-31
2022/06/22 06:22:12;;;;;;;7.07;3.97;;;;;;;15.62;100.00;101524.03;5027503;28;20053;-32
2022/06/22 06:27:34;;;;;;;6.25;3.47;;;;;;;15.79;100.00;101523.34;5024775;28;20057;-34
2022/06/22 06:27:34;;;;;;;7.20;3.80;;;;;;;15.95;100.00;101526.66;5019845;28;20041;-30
2022/06/22 06:30:18;;;;;;;6.60;3.80;;;;;;;16.15;100.00;101518.53;5022112;28;20041;-32
2022/06/22 06:32:53;;;;;;;4.10;3.08;;;;;;;16.34;100.00;101523.13;5028447;28;20609;-29
2022/06/22 06:35:30;;;;;;;5.45;3.03;;;;;;;16.60;100.00;101526.88;5023338;28;20050;-36
2022/06/22 06:38:10;;;;;;;6.00;3.78;;;;;;;16.96;100.00;101521.13;5028754;28;20045;-33
2022/06/22 06:40:44;;;;;;;4.07;2.88;;;;;;;17.38;100.00;101519.59;5024664;28;20050;-27
2022/06/22 06:43:30;;;;;;;5.57;2.65;;;;;;;17.85;100.00;101522.63;5018527;28;20550;-36
2022/06/22 06:46:00;;;;;;;4.97;2.30;;;;;;;18.51;100.00;101520.38;5024248;28;20053;-30
2022/06/22 06:48:31;;;;;;;4.75;2.42;;;;;;;19.11;100.00;101516.50;5017183;28;20058;-28
2022/06/22 06:51:04;;;;;;;4.90;2.40;;;;;;;19.72;100.00;101522.63;5021812;28;20034;-30
2022/06/22 06:53:39;;;;;;;4.35;2.20;;;;;;;20.29;100.00;101529.28;5028435;28;20052;-30
2022/06/22 06:56:14;;;;;;;6.47;2.17;;;;;;;20.94;100.00;101529.59;5024676;28;20139;-34
2022/06/22 06:58:48;;;;;;;4.78;1.60;;;;;;;21.79;100.00;101528.69;5018273;28;20482;-32
2022/06/22 07:01:21;;;;;;;2.72;1.38;;;;;;;22.56;99.63;101527.34;5020869;28;20378;-31
2022/06/22 07:03:52;;;;;;;4.95;1.30;;;;;;;23.20;91.52;101526.19;5028579;28;20041;-31
2022/06/22 07:06:21;;;;;;;5.60;1.60;;;;;;;23.63;87.72;101525.22;5024022;28;20782;-29
2022/06/22 07:09:01;;;;;;;4.55;1.60;;;;;;;24.07;85.69;101530.66;5019199;28;20081;-29
2022/06/22 07:11:34;;;;;;;3.53;1.27;;;;;;;24.73;82.05;101530.38;5021553;28;20132;-31
2022/06/22 07:14:09;;;;;;;2.92;1.45;;;;;;;25.31;76.79;101529.38;5018730;28;20046;-35
2022/06/22 07:16:37;;;;;;;4.18;1.17;;;;;;;25.38;74.02;101541.72;5021789;28;20060;-30
2022/06/22 07:19:12;;;;;;;3.17;1.40;;;;;;;25.49;70.91;101536.19;5026347;28;20124;-29
2022/06/22 07:21:48;;;;;;;3.55;1.13;;;;;;;25.85;67.70;101533.88;5023654;28;20045;-29
2022/06/22 07:24:21;;;;;;;3.67;1.20;;;;;;;26.14;66.31;101532.22;5020220;28;20056;-32
2022/06/22 07:27:02;;;;;;;2.53;0.98;;;;;;;26.71;62.95;101533.75;5021449;28;20049;-31
2022/06/22 07:29:38;;;;;;;3.63;1.20;;;;;;;27.09;61.07;101536.19;5026257;28;20065;-33
2022/06/22 07:32:16;;;;;;;3.35;1.25;;;;;;;27.53;57.95;101537.34;5023647;28;20375;-35
2022/06/22 07:34:50;;;;;;;3.30;1.00;;;;;;;27.81;53.36;101523.19;5018247;28;20104;-30
2022/06/22 07:37:25;;;;;;;4.18;1.38;;;;;;;28.12;53.28;101524.59;5021080;28;20044;-33
2022/06/22 07:39:58;;;;;;;4.13;1.33;;;;;;;28.38;50.96;101523.47;5026854;28;20132;-30
2022/06/22 07:42:26;;;;;;;2.50;0.88;;;;;;;28.61;50.23;101526.81;5023204;28;20080;-30
2022/06/22 07:44:54;;;;;;;3.30;1.00;;;;;;;28.68;48.58;101523.16;5020245;28;20049;-34
2022/06/22 07:47:33;;;;;;;3.10;1.10;;;;;;;28.80;47.11;101523.59;5020495;28;20088;-32
2022/06/22 07:50:04;;;;;;;2.78;0.90;;;;;;;29.18;47.13;101520.34;5024334;28;20413;-30
2022/06/22 07:52:40;;;;;;;2.83;0.80;;;;;;;29.56;44.16;101518.69;5023780;28;20544;-31
2022/06/22 07:55:20;;;;;;;3.17;1.10;;;;;;;29.86;43.91;101506.69;5021069;28;20136;-30
2022/06/22 07:57:59;;;;;;;3.38;0.90;;;;;;;30.30;41.63;101504.06;5020467;28;20164;-30
2022/06/22 08:00:29;;;;;;;3.05;1.25;;;;;;;30.39;41.40;101501.53;5025574;28;20045;-30
2022/06/22 08:03:03;;;;;;;3.33;0.95;;;;;;;30.52;39.52;101501.88;5022905;28;20491;-32
2022/06/22 08:05:37;;;;;;;3.17;0.70;;;;;;;30.69;40.53;101505.91;5020530;28;20100;-31
2022/06/22 08:08:15;;;;;;;3.38;0.80;;;;;;;31.02;38.35;101502.34;5020480;28;20053;-31
2022/06/22 08:10:51;;;;;;;2.10;0.80;;;;;;;31.10;36.25;101506.84;5024178;28;20132;-32
2022/06/22 08:13:23;;;;;;;2.25;0.90;;;;;;;31.02;36.35;101508.13;5022245;28;20046;-32
2022/06/22 08:15:53;;;;;;;2.78;0.93;;;;;;;31.17;36.11;101506.00;4993087;28;20558;-39
2022/06/22 08:18:21;;;;;;;3.17;0.80;;;;;;;31.31;34.35;101507.91;5014853;28;20550;-31
2022/06/22 08:20:51;;;;;;;2.00;0.70;;;;;;;31.35;34.30;101506.63;5022746;28;20056;-32
2022/06/22 08:23:24;;;;;;;2.92;0.90;;;;;;;31.62;34.46;101503.88;5023892;28;20057;-36
2022/06/22 08:26:03;;;;;;;2.08;0.65;;;;;;;31.98;34.17;101504.31;5013481;28;20076;-34
2022/06/22 08:28:34;;;;;;;3.25;0.77;;;;;;;32.22;32.79;101507.34;5023764;28;20042;-33
2022/06/22 08:31:01;;;;;;;;;;;;;;;32.12;30.19;101512.00;5010297;28;20053;-37
2022/06/22 08:33:35;;;;;;;2.30;0.65;;;;;;;32.21;33.57;101512.28;5025247;28;20378;-31
2022/06/22 08:36:09;;;;;;;2.05;0.80;;;;;;;32.45;32.10;101507.44;5023320;28;20050;-31
2022/06/22 08:38:43;;;;;;;1.88;0.80;;;;;;;32.77;32.32;101509.91;5015793;28;20042;-38
2022/06/22 08:41:23;;;;;;;3.28;1.10;;;;;;;32.95;30.96;101515.38;5021097;28;20041;-31
2022/06/22 08:44:01;;;;;;;2.08;0.90;;;;;;;32.96;31.03;101502.56;5027822;28;20449;-30
2022/06/22 08:46:48;;;;;;;2.03;0.80;;;;;;;32.92;30.06;101505.50;5026644;28;20491;-34
2022/06/22 08:49:41;;;;;;;2.60;0.95;;;;;;;33.10;30.88;101508.09;5024371;28;20051;-31
2022/06/22 08:52:36;;;;;;;3.55;0.93;;;;;;;33.38;29.01;101507.63;5028398;28;20055;-31
2022/06/22 08:55:47;;;;;;;4.05;0.93;;;;;;;33.53;28.93;101511.91;5028836;28;20049;-32
2022/06/22 08:58:31;;;;;;;2.85;0.90;;;;;;;33.68;29.37;101517.41;5000810;28;20391;-33
2022/06/22 09:01:07;;;;;;;2.50;0.80;;;;;;;33.80;29.44;101516.78;5022728;28;20077;-32
2022/06/22 09:04:05;;;;;;;2.75;0.80;;;;;;;33.60;28.38;101518.78;5034328;28;20456;-31
2022/06/22 09:06:46;;;;;;;3.03;1.10;;;;;;;33.32;28.77;101525.94;5034486;28;20045;-38
2022/06/22 09:09:26;;;;;;;2.55;0.90;;;;;;;32.95;29.08;101530.66;5031858;28;20120;-37
2022/06/22 09:12:12;;;;;;;2.20;0.95;;;;;;;32.62;27.91;101519.97;5024391;28;20059;-38
2022/06/22 09:15:09;;;;;;;2.25;1.05;;;;;;;32.55;28.21;101518.03;5027133;28;20056;-35
2022/06/22 09:18:01;;;;;;;3.20;1.08;;;;;;;32.79;28.96;101521.81;5015181;28;20073;-35
2022/06/22 09:20:48;;;;;;;2.58;0.90;;;;;;;33.11;28.42;101524.19;5025872;28;20499;-31
2022/06/22 09:23:30;;;;;;;2.55;0.98;;;;;;;33.28;29.12;101523.09;5022274;28;20046;-32
2022/06/22 09:26:08;;;;;;;3.00;0.88;;;;;;;33.33;29.61;101525.50;5023746;28;20470;-33
2022/06/22 09:28:44;;;;;;;1.92;0.80;;;;;;;33.54;29.79;101527.19;5029404;28;20056;-33
2022/06/22 09:31:40;;;;;;;3.13;1.08;;;;;;;33.62;29.42;101519.16;5026368;28;20049;-33
2022/06/22 09:34:20;;;;;;;2.88;1.20;;;;;;;33.37;28.39;101516.75;5016857;28;20057;-32
2022/06/22 09:37:16;;;;;;;3.30;1.20;;;;;;;33.28;28.54;101525.19;5017650;28;20073;-31
2022/06/22 09:40:18;;;;;;;3.75;1.08;;;;;;;33.38;29.00;101518.38;5000423;28;20044;-31
2022/06/22 09:43:10;;;;;;;3.55;1.38;;;;;;;33.50;28.03;101526.44;5026382;28;20491;-33
2022/06/22 09:45:50;;;;;;;2.50;1.13;;;;;;;33.48;27.04;101526.06;5019403;28;20057;-35
2022/06/22 09:48:44;;;;;;;4.43;1.20;;;;;;;33.20;27.62;101530.22;5023349;28;20073;-33
2022/06/22 09:51:27;;;;;;;2.53;1.00;;;;;;;32.85;27.53;101520.06;5021932;28;20077;-37
2022/06/22 09:57:49;;;;;;;2.63;1.25;;;;;;;32.10;29.14;101514.50;4966514;28;20054;-31
2022/06/22 10:00:20;;;;;;;4.03;1.15;;;;;;;32.30;29.36;101512.59;4937060;28;20520;-39
2022/06/22 10:03:23;;;;;;;3.28;1.10;;;;;;;32.33;28.64;101517.50;4996858;28;20046;-31
2022/06/22 10:06:08;;;;;;;3.08;1.05;;;;;;;32.64;30.05;101517.47;5002120;28;20097;-31
2022/06/22 10:08:48;;;;;;;2.78;1.00;;;;;;;32.92;29.66;101522.84;5021796;28;20483;-38
2022/06/22 10:11:25;;;;;;;2.65;1.02;;;;;;;33.00;29.10;101521.47;5029344;28;20080;-36
2022/06/22 10:14:14;;;;;;;2.38;1.00;;;;;;;33.26;29.51;101521.91;5017700;28;20042;-31
2022/06/22 10:16:55;;;;;;;3.35;1.05;;;;;;;33.49;28.77;101521.91;5018489;28;20064;-33
2022/06/22 10:19:52;;;;;;;3.67;1.20;;;;;;;33.69;27.97;101522.75;5023555;28;20133;-31
2022/06/22 10:22:36;;;;;;;3.17;1.00;;;;;;;33.45;27.89;101526.94;5022149;28;20573;-39
2022/06/22 10:25:33;;;;;;;2.78;1.25;;;;;;;33.18;27.96;101521.16;5016417;28;20053;-32
2022/06/22 10:28:18;;;;;;;2.47;1.17;;;;;;;33.06;27.06;101521.81;5020775;28;20045;-32
2022/06/22 10:30:56;;;;;;;3.42;1.20;;;;;;;32.99;27.64;101521.91;5018036;28;20050;-39
2022/06/22 10:33:47;;;;;;;2.50;1.00;;;;;;;33.17;27.35;101523.25;5022230;28;20125;-40
2022/06/22 10:36:52;;;;;;;2.65;1.13;;;;;;;33.29;27.53;101526.81;5030458;28;20409;-38
2022/06/22 10:39:51;;;;;;;2.13;0.90;;;;;;;33.52;27.34;101523.91;5023446;28;20414;-32
2022/06/22 10:45:40;;;;;;;3.72;0.98;;;;;;;33.33;26.46;101525.50;5023295;28;20108;-40
2022/06/22 10:48:44;;;;;;;2.80;0.98;;;;;;;33.28;26.43;101516.50;5021280;28;20045;-38
2022/06/22 10:51:25;;;;;;;3.38;1.27;;;;;;;33.38;27.11;101513.41;5020168;28;20149;-32
2022/06/22 10:54:22;;;;;;;2.50;1.00;;;;;;;33.29;26.79;101510.28;5024923;28;20045;-31
2022/06/22 10:57:06;;;;;;;3.13;1.17;;;;;;;33.30;27.68;101511.91;5015186;28;20053;-37
2022/06/22 10:59:59;;;;;;;2.75;1.10;;;;;;;33.38;27.58;101515.47;5019883;28;20061;-41
2022/06/22 11:03:08;;;;;;;2.40;0.98;;;;;;;33.51;26.84;101510.72;4998755;28;20056;-30
2022/06/22 11:05:56;;;;;;;2.55;1.10;;;;;;;33.45;27.06;101504.59;5004452;28;20049;-31
2022/06/22 11:08:45;;;;;;;3.97;1.30;;;;;;;33.33;27.34;101508.13;5028480;28;20129;-36
2022/06/22 11:11:28;;;;;;;2.78;1.08;;;;;;;33.25;27.22;101511.56;5023529;28;20422;-36
2022/06/22 11:14:30;;;;;;;2.97;1.10;;;;;;;33.27;27.13;101507.00;5018834;28;20084;-37
2022/06/22 11:17:15;;;;;;;3.25;1.13;;;;;;;33.14;26.65;101494.41;5018820;28;20057;-32
2022/06/22 11:20:15;;;;;;;5.25;1.25;;;;;;;33.22;28.12;101493.81;5023426;28;20409;-36
2022/06/22 11:22:49;;;;;;;3.85;1.23;;;;;;;33.29;27.39;101492.09;5015699;28;20050;-31
2022/06/22 11:32:18;;;;;;;4.57;1.17;;;;;;;33.26;27.46;101469.84;5022629;28;20054;-30
2022/06/22 11:35:12;;;;;;;2.22;1.05;;;;;;;33.24;27.16;101487.59;5020342;28;20049;-30
2022/06/22 11:37:56;;;;;;;2.67;1.05;;;;;;;33.11;27.73;101486.59;5018498;28;20056;-36
2022/06/22 11:40:44;;;;;;;2.85;1.15;;;;;;;33.16;27.30;101477.44;5023194;28;20148;-36
2022/06/22 11:43:32;;;;;;;3.25;1.08;;;;;;;33.10;27.47;101482.88;5017447;28;20438;-32
2022/06/22 11:46:05;;;;;;;2.53;1.10;;;;;;;33.14;27.54;101488.63;5024497;28;20053;-30
2022/06/22 11:49:22;;;;;;;2.92;0.98;;;;;;;33.05;26.71;101485.47;5014552;28;20061;-37
2022/06/22 11:52:09;;;;;;;1.92;0.90;;;;;;;33.00;27.65;101474.38;4970815;28;20495;-32
2022/06/22 11:54:52;;;;;;;2.70;1.00;;;;;;;32.92;26.96;101467.91;4973710;28;20496;-40
2022/06/22 11:57:41;;;;;;;2.13;0.90;;;;;;;32.86;26.18;101475.44;5011669;28;20061;-36
2022/06/22 12:00:19;;;;;;;1.98;0.90;;;;;;;32.70;26.65;101467.41;5027680;28;20034;-41
2022/06/22 12:03:34;;;;;;;2.47;0.90;;;;;;;32.81;26.86;101467.25;5021035;28;20411;-33
2022/06/22 12:06:26;;;;;;;2.47;0.70;;;;;;;33.06;25.93;101472.63;5020642;28;20092;-31
2022/06/22 12:09:07;;;;;;;2.58;0.90;;;;;;;33.28;26.31;101464.41;5026253;28;20049;-30
2022/06/22 12:11:46;;;;;;;2.45;1.08;;;;;;;33.42;25.78;101469.94;5023683;28;20077;-29
2022/06/22 12:17:32;;;;;;;2.88;0.95;;;;;;;33.42;25.86;101467.03;5016459;28;20045;-31
2022/06/22 12:20:19;;;;;;;3.28;1.00;;;;;;;33.33;24.49;101467.63;4996816;28;20562;-31
2022/06/22 12:22:58;;;;;;;2.20;0.88;;;;;;;33.01;23.63;101464.44;5021675;28;20128;-33
2022/06/22 12:25:57;;;;;;;2.45;0.85;;;;;;;32.81;23.22;101458.59;5013659;28;20048;-30
2022/06/22 12:28:43;;;;;;;2.85;0.93;;;;;;;32.63;25.72;101450.19;5005796;28;20045;-30
2022/06/22 12:31:14;;;;;;;1.92;0.70;;;;;;;32.69;26.18;101453.41;5026735;28;20053;-36
2022/06/22 12:33:52;;;;;;;2.20;0.85;;;;;;;32.75;25.00;101451.69;5020761;28;20046;-31
2022/06/22 12:36:25;;;;;;;2.63;1.00;;;;;;;32.82;25.41;101454.44;5016576;28;20064;-36